Time;durP1;ratioP1;P1;durP2;ratioP2;P2;SDS_P1;SDS_P2;PMS_P1;PMS_P2;Temp;Humidity;BMP_temperature;BMP_pressure;BME280_temperature;BME280_humidity;BME280_pressure;Samples;Min_cycle;Max_cycle;Signal;HPM_P1;HPM_P2
2022/10/28 05:01:20;;;;;;;14.93;4.03;;;13.90;99.90;;;;;;6046835;23;20018;31
2022/10/28 05:03:46;;;;;;;10.45;4.57;;;13.80;99.90;;;;;;4940373;29;20051;-71
2022/10/28 05:06:11;;;;;;;8.80;3.75;;;13.80;99.90;;;;;;4946044;29;20046;-71
2022/10/28 05:08:37;;;;;;;12.25;4.28;;;13.80;99.90;;;;;;4946131;29;20051;-70
2022/10/28 05:11:03;;;;;;;10.90;4.22;;;13.80;99.90;;;;;;4945683;29;20031;-69
2022/10/28 05:13:29;;;;;;;10.95;4.30;;;13.70;99.90;;;;;;4946014;29;20244;-71
2022/10/28 05:15:54;;;;;;;13.25;4.60;;;13.70;99.90;;;;;;4945852;29;20035;-70
2022/10/28 05:18:20;;;;;;;11.70;4.30;;;13.80;99.90;;;;;;4940908;29;20030;-71
2022/10/28 05:20:46;;;;;;;10.77;4.40;;;13.70;99.90;;;;;;4946404;29;20332;-71
2022/10/28 05:23:11;;;;;;;9.88;4.40;;;13.70;99.90;;;;;;4945923;29;20042;-70
2022/10/28 05:25:37;;;;;;;13.27;4.88;;;13.70;99.90;;;;;;4946493;29;20286;-69
2022/10/28 05:28:04;;;;;;;10.57;4.18;;;13.70;99.90;;;;;;4945660;29;20023;-69
2022/10/28 05:30:29;;;;;;;13.40;4.43;;;13.70;99.90;;;;;;4946510;29;20032;-71
2022/10/28 05:33:00;;;;;;;12.95;4.38;;;13.60;99.90;;;;;;4945492;29;20026;-71
2022/10/28 05:35:25;;;;;;;10.18;4.35;;;13.60;99.90;;;;;;4945696;29;20075;-71
2022/10/28 05:37:51;;;;;;;11.93;4.43;;;13.50;99.90;;;;;;4944959;29;20129;-70
2022/10/28 05:40:17;;;;;;;10.23;4.38;;;13.40;99.90;;;;;;4945901;29;20036;-69
2022/10/28 05:42:43;;;;;;;12.50;3.95;;;13.30;99.90;;;;;;4945799;29;20027;-71
2022/10/28 05:45:10;;;;;;;8.23;4.78;;;13.30;99.90;;;;;;4944652;29;20035;-71
2022/10/28 05:47:35;;;;;;;11.02;4.00;;;13.30;99.90;;;;;;4945653;29;20055;-70
2022/10/28 05:50:01;;;;;;;9.00;4.25;;;13.20;99.90;;;;;;4944571;29;20034;-71
2022/10/28 05:52:26;;;;;;;14.30;4.85;;;13.20;99.90;;;;;;4945409;29;20028;-70
2022/10/28 05:54:52;;;;;;;12.02;4.50;;;13.20;99.90;;;;;;4944998;29;20028;-69
2022/10/28 05:57:21;;;;;;;9.13;4.53;;;13.20;99.90;;;;;;4944803;29;20139;-70
2022/10/28 05:59:46;;;;;;;;;;;13.10;99.90;;;;;;4945824;29;20020;-70
2022/10/28 06:02:15;;;;;;;10.55;4.00;;;13.10;99.90;;;;;;4944469;29;20193;-70
2022/10/28 06:04:41;;;;;;;;;;;13.00;99.90;;;;;;4945673;29;20039;-70
2022/10/28 06:07:07;;;;;;;12.20;4.53;;;13.00;99.90;;;;;;4944701;29;19973;-70
2022/10/28 06:09:33;;;;;;;12.23;4.97;;;13.00;99.90;;;;;;4945011;29;20099;-72
2022/10/28 06:11:58;;;;;;;9.85;4.82;;;12.90;99.90;;;;;;4944288;29;20250;-69
2022/10/28 06:14:24;;;;;;;10.80;5.10;;;12.90;99.90;;;;;;4945216;29;20036;-68
2022/10/28 06:16:50;;;;;;;12.02;4.90;;;12.80;99.90;;;;;;4944701;29;20027;-71
2022/10/28 06:19:18;;;;;;;13.23;4.60;;;12.90;99.90;;;;;;4927131;29;20044;-73
2022/10/28 06:21:44;;;;;;;10.77;4.63;;;12.90;99.90;;;;;;4925710;29;20032;-71
2022/10/28 06:24:10;;;;;;;11.80;4.72;;;13.00;99.90;;;;;;4925405;29;20047;-72
2022/10/28 06:26:36;;;;;;;15.68;5.25;;;13.00;99.90;;;;;;4926138;29;20036;-72
2022/10/28 06:29:01;;;;;;;10.15;4.72;;;13.00;99.90;;;;;;4925594;29;20040;-71
2022/10/28 06:31:27;;;;;;;11.95;5.00;;;13.00;99.90;;;;;;4925534;29;20052;-69
2022/10/28 06:33:53;;;;;;;9.43;4.40;;;13.00;99.90;;;;;;4925505;29;20099;-70
2022/10/28 06:36:21;;;;;;;9.43;4.53;;;13.00;99.90;;;;;;4925022;29;20051;-70
2022/10/28 06:38:47;;;;;;;9.80;4.47;;;13.00;99.90;;;;;;4925909;29;20218;-71
2022/10/28 06:41:13;;;;;;;7.97;4.10;;;13.10;99.90;;;;;;4925190;29;20103;-70
2022/10/28 06:43:39;;;;;;;10.02;4.40;;;13.20;99.90;;;;;;4908729;29;20144;-70
2022/10/28 06:46:04;;;;;;;11.02;4.40;;;13.20;99.90;;;;;;4925213;29;20024;-71
2022/10/28 06:48:30;;;;;;;14.20;4.22;;;13.30;99.90;;;;;;4925706;29;20036;-70
2022/10/28 06:50:57;;;;;;;8.23;4.50;;;13.30;99.90;;;;;;4925184;29;20036;-69
2022/10/28 06:53:23;;;;;;;12.93;4.65;;;13.40;99.90;;;;;;4925581;29;20341;-71
2022/10/28 06:55:57;;;;;;;12.23;4.43;;;13.50;99.90;;;;;;4929165;29;20040;-72
2022/10/28 06:58:24;;;;;;;11.90;5.45;;;13.60;99.90;;;;;;4935980;29;20038;-70
2022/10/28 07:00:50;;;;;;;9.00;4.25;;;13.80;99.90;;;;;;4944175;29;20040;-71
2022/10/28 07:03:17;;;;;;;10.25;4.18;;;13.80;99.90;;;;;;4923477;29;20268;-70
2022/10/28 07:05:43;;;;;;;9.13;4.37;;;13.90;99.90;;;;;;4925035;29;20071;-71
2022/10/28 07:08:09;;;;;;;8.55;4.20;;;14.00;99.90;;;;;;4924980;29;20032;-73
2022/10/28 07:10:35;;;;;;;10.70;3.85;;;14.10;99.90;;;;;;4925316;29;20063;-72
2022/10/28 07:13:00;;;;;;;11.85;4.05;;;14.20;99.90;;;;;;4923635;29;20042;-70
2022/10/28 07:15:26;;;;;;;9.07;4.32;;;14.30;99.90;;;;;;4914103;29;20096;-70
2022/10/28 07:17:56;;;;;;;9.15;3.85;;;14.30;99.90;;;;;;4905272;29;20358;-70
2022/10/28 07:20:24;;;;;;;9.65;3.92;;;14.50;99.90;;;;;;4905341;29;20487;-69
2022/10/28 07:23:00;;;;;;;9.68;4.40;;;14.50;99.90;;;;;;4904971;29;20035;-70
2022/10/28 07:25:28;;;;;;;9.55;3.83;;;14.50;99.90;;;;;;4905205;29;20056;-70
2022/10/28 07:27:57;;;;;;;10.07;4.37;;;14.60;99.90;;;;;;4905138;29;20141;-70
2022/10/28 07:30:22;;;;;;;11.73;4.43;;;14.60;99.90;;;;;;4913946;29;20055;-72
2022/10/28 07:32:48;;;;;;;13.23;4.43;;;14.60;99.90;;;;;;4925517;29;20055;-71
2022/10/28 07:35:14;;;;;;;11.43;4.05;;;14.80;99.90;;;;;;4927174;29;20055;-70
2022/10/28 07:37:40;;;;;;;9.90;4.03;;;14.90;99.90;;;;;;4927981;29;20184;-73
2022/10/28 07:40:06;;;;;;;14.90;4.25;;;15.00;99.90;;;;;;4927266;29;20107;-72
2022/10/28 07:42:33;;;;;;;12.50;4.05;;;15.00;99.90;;;;;;4928007;29;20147;-72
2022/10/28 07:44:59;;;;;;;12.68;4.30;;;15.10;99.90;;;;;;4927179;29;20044;-70
2022/10/28 07:47:25;;;;;;;12.30;4.13;;;15.20;99.90;;;;;;4928003;29;20091;-72
2022/10/28 07:49:53;;;;;;;13.63;4.20;;;15.20;99.90;;;;;;4927784;29;20028;-72
2022/10/28 07:52:19;;;;;;;7.50;4.18;;;15.20;99.90;;;;;;4927257;29;20040;-69
2022/10/28 07:54:45;;;;;;;8.35;3.70;;;15.20;99.90;;;;;;4927492;29;20048;-70
2022/10/28 07:57:10;;;;;;;12.52;4.40;;;15.30;99.90;;;;;;4926634;29;20036;-71
2022/10/28 07:59:36;;;;;;;8.85;4.40;;;15.20;99.90;;;;;;4927734;29;20028;-71
2022/10/28 08:02:02;;;;;;;10.90;4.72;;;15.20;99.90;;;;;;4931874;29;20091;-71
2022/10/28 08:04:30;;;;;;;11.10;3.95;;;15.30;99.90;;;;;;4946450;29;20128;-69
2022/10/28 08:06:55;;;;;;;9.95;3.72;;;15.30;99.90;;;;;;4945059;29;20409;-69
2022/10/28 08:09:21;;;;;;;9.73;3.75;;;15.40;99.90;;;;;;4945370;29;20032;-71
2022/10/28 08:11:47;;;;;;;10.27;4.30;;;15.50;99.90;;;;;;4946060;29;20042;-71
2022/10/28 08:14:13;;;;;;;10.00;3.92;;;15.60;99.90;;;;;;4928455;29;20058;-70
2022/10/28 08:16:39;;;;;;;10.38;4.05;;;15.70;99.90;;;;;;4946058;29;20039;-71
2022/10/28 08:19:05;;;;;;;11.32;4.20;;;15.80;99.90;;;;;;4912560;29;20095;-70
2022/10/28 08:21:30;;;;;;;10.93;4.10;;;15.80;99.90;;;;;;4927056;29;20322;-70
2022/10/28 08:23:56;;;;;;;11.52;4.15;;;15.90;99.90;;;;;;4926613;29;20475;-70
2022/10/28 08:26:22;;;;;;;10.30;4.38;;;16.00;99.90;;;;;;4926331;29;20076;-70
2022/10/28 08:28:48;;;;;;;7.18;3.60;;;16.10;99.90;;;;;;4926797;29;20024;-71
2022/10/28 08:31:13;;;;;;;10.35;3.78;;;16.20;99.90;;;;;;4931577;29;20031;-72
2022/10/28 08:33:45;;;;;;;10.77;4.32;;;16.20;99.90;;;;;;4928863;29;20282;-70
2022/10/28 08:36:13;;;;;;;13.90;4.10;;;16.30;99.90;;;;;;4945376;29;20087;-71
2022/10/28 08:38:39;;;;;;;18.35;4.50;;;16.40;99.90;;;;;;4945900;29;20039;-71
2022/10/28 08:41:31;;;;;;;8.50;3.90;;;16.50;99.90;;;;;;4945265;29;20031;-71
2022/10/28 08:44:12;;;;;;;10.52;3.97;;;16.60;99.90;;;;;;4944587;29;20130;-71
2022/10/28 08:47:15;;;;;;;10.35;4.10;;;16.60;99.90;;;;;;4928664;29;20090;-71
2022/10/28 08:49:42;;;;;;;12.48;3.95;;;16.80;99.90;;;;;;4945511;29;20036;-71
2022/10/28 08:52:11;;;;;;;13.17;3.87;;;16.90;99.90;;;;;;4927895;29;20320;-71
2022/10/28 08:54:50;;;;;;;14.07;5.15;;;17.00;99.90;;;;;;4945160;29;20028;-72
2022/10/28 08:57:20;;;;;;;14.05;4.97;;;17.10;99.90;;;;;;4939256;29;20213;-71
2022/10/28 08:59:50;;;;;;;14.63;4.82;;;17.20;99.90;;;;;;4926327;29;20036;-72
2022/10/28 09:02:24;;;;;;;12.23;5.15;;;17.40;99.90;;;;;;4925161;29;20229;-71
2022/10/28 09:04:58;;;;;;;12.93;4.28;;;17.50;99.90;;;;;;4925916;29;20337;-71
2022/10/28 09:07:24;;;;;;;13.90;5.95;;;17.70;99.90;;;;;;4925591;29;20031;-74
2022/10/28 09:09:51;;;;;;;11.23;4.30;;;17.90;99.90;;;;;;4925628;29;20231;-70
2022/10/28 09:12:29;;;;;;;12.25;4.38;;;18.00;99.90;;;;;;4925559;29;20136;-71
2022/10/28 09:15:05;;;;;;;13.18;3.70;;;18.20;99.90;;;;;;4926149;29;20071;-70
2022/10/28 09:17:46;;;;;;;10.80;4.05;;;18.20;99.90;;;;;;4926165;29;20047;-71
2022/10/28 09:20:35;;;;;;;9.65;4.38;;;18.30;99.90;;;;;;4925155;29;20036;-72
2022/10/28 09:23:28;;;;;;;9.27;4.45;;;18.40;99.90;;;;;;4916725;29;20044;-71
2022/10/28 09:26:23;;;;;;;12.70;4.78;;;18.40;99.90;;;;;;4908497;29;20152;-71
2022/10/28 09:29:12;;;;;;;15.23;5.60;;;18.40;99.90;;;;;;4925848;29;20028;-70
2022/10/28 09:31:51;;;;;;;7.63;4.25;;;18.40;99.90;;;;;;4926173;29;20237;-71
2022/10/28 09:34:46;;;;;;;13.55;4.63;;;18.50;99.90;;;;;;4927136;29;20042;-70
2022/10/28 09:37:29;;;;;;;9.13;4.07;;;18.50;99.90;;;;;;4944111;29;20032;-71
2022/10/28 09:40:13;;;;;;;11.82;4.00;;;18.50;99.90;;;;;;4943809;29;20117;-72
2022/10/28 09:42:46;;;;;;;10.40;3.65;;;18.40;99.90;;;;;;4927971;29;20035;-71
2022/10/28 09:45:20;;;;;;;12.50;5.00;;;18.40;99.90;;;;;;4943637;29;20039;-71
2022/10/28 09:48:05;;;;;;;13.98;5.38;;;18.40;99.90;;;;;;4927823;29;20032;-71
2022/10/28 09:50:31;;;;;;;13.77;4.68;;;18.30;99.90;;;;;;4927483;29;20042;-72
2022/10/28 09:53:23;;;;;;;15.90;4.65;;;18.50;99.90;;;;;;4944565;29;20104;-71
2022/10/28 09:55:49;;;;;;;12.48;4.38;;;18.80;99.90;;;;;;4943979;29;20242;-72
2022/10/28 09:58:17;;;;;;;8.35;3.80;;;19.10;99.90;;;;;;4926210;29;20062;-71
2022/10/28 10:00:43;;;;;;;15.70;4.83;;;19.70;99.90;;;;;;4944301;29;20023;-71
2022/10/28 10:03:09;;;;;;;9.73;3.83;;;20.20;99.90;;;;;;4942454;29;20045;-70
2022/10/28 10:05:40;;;;;;;11.18;3.90;;;20.60;99.90;;;;;;4943783;29;20329;-70
2022/10/28 10:08:13;;;;;;;12.02;3.33;;;21.10;99.90;;;;;;4943325;29;20103;-71
2022/10/28 10:10:51;;;;;;;10.93;4.45;;;21.40;99.90;;;;;;4943896;29;20046;-69
2022/10/28 10:13:26;;;;;;;11.35;4.18;;;21.50;99.90;;;;;;4943267;29;20028;-70
2022/10/28 10:15:55;;;;;;;11.48;4.40;;;21.70;99.90;;;;;;4943658;29;20058;-70
2022/10/28 10:18:28;;;;;;;9.45;3.67;;;21.60;99.80;;;;;;4943003;29;20046;-70
2022/10/28 10:20:59;;;;;;;11.23;3.38;;;21.60;99.40;;;;;;4943688;29;20040;-70
2022/10/28 10:23:28;;;;;;;8.23;2.50;;;21.70;99.10;;;;;;4944307;29;20027;-70
2022/10/28 10:26:15;;;;;;;7.88;2.47;;;21.60;98.70;;;;;;4945754;29;20036;-70
2022/10/28 10:28:47;;;;;;;10.20;2.95;;;21.60;99.00;;;;;;4945514;29;20032;-70
2022/10/28 10:31:25;;;;;;;7.30;2.70;;;21.80;98.70;;;;;;4943458;29;20246;-70
2022/10/28 10:33:56;;;;;;;15.98;3.33;;;21.80;98.60;;;;;;4943385;29;20262;-71
2022/10/28 10:36:27;;;;;;;10.45;3.60;;;21.80;98.60;;;;;;4925982;29;20230;-71
2022/10/28 10:38:58;;;;;;;7.72;3.58;;;21.60;99.30;;;;;;4943038;29;20051;-72
2022/10/28 10:41:42;;;;;;;10.32;4.00;;;21.00;99.90;;;;;;4942812;29;20455;-70
2022/10/28 10:44:20;;;;;;;11.10;4.10;;;20.70;99.90;;;;;;4942665;29;20055;-70
2022/10/28 10:46:46;;;;;;;8.95;3.38;;;20.60;99.90;;;;;;4943430;29;20098;-72
2022/10/28 10:49:14;;;;;;;10.40;3.75;;;20.70;99.90;;;;;;4942758;29;20038;-71
2022/10/28 10:51:55;;;;;;;9.95;3.63;;;20.80;99.90;;;;;;4943504;29;20024;-69
2022/10/28 10:54:23;;;;;;;14.15;4.22;;;20.90;99.90;;;;;;4942372;29;20046;-69
2022/10/28 10:56:49;;;;;;;13.93;4.30;;;20.90;99.90;;;;;;4941053;29;20063;-69
2022/10/28 10:59:28;;;;;;;11.48;4.60;;;20.90;99.90;;;;;;4923734;29;20079;-70
2022/10/28 11:01:54;;;;;;;;;;;20.90;99.90;;;;;;4924488;29;20061;-70
2022/10/28 11:04:21;;;;;;;12.45;3.42;;;20.90;99.90;;;;;;4934122;29;19915;-72
2022/10/28 11:06:53;;;;;;;10.15;3.80;;;20.90;99.90;;;;;;4943637;29;20039;-71
2022/10/28 11:09:32;;;;;;;9.05;3.97;;;20.90;99.90;;;;;;4946309;29;20032;-71
2022/10/28 11:11:58;;;;;;;11.32;3.70;;;21.10;99.90;;;;;;4946941;29;20047;-72
2022/10/28 11:14:33;;;;;;;9.80;3.63;;;21.50;99.90;;;;;;4939180;29;20123;-72
2022/10/28 11:17:08;;;;;;;14.48;3.67;;;21.80;99.90;;;;;;4934444;29;20024;-70
2022/10/28 11:19:38;;;;;;;10.73;3.78;;;22.00;99.70;;;;;;4931326;29;20377;-71
2022/10/28 11:22:20;;;;;;;9.48;3.10;;;22.20;98.40;;;;;;4925784;29;20104;-70
2022/10/28 11:24:46;;;;;;;8.57;3.53;;;22.00;98.30;;;;;;4940693;29;20032;-70
2022/10/28 11:27:36;;;;;;;13.88;3.97;;;21.90;98.70;;;;;;4931202;29;20036;-70
2022/10/28 11:30:15;;;;;;;9.38;3.67;;;21.70;99.10;;;;;;4941038;29;20024;-70
2022/10/28 11:33:08;;;;;;;11.00;3.38;;;21.40;99.60;;;;;;4941215;29;20253;-71
2022/10/28 11:36:00;;;;;;;7.70;3.00;;;21.10;99.90;;;;;;4918481;29;20060;-71
2022/10/28 11:38:40;;;;;;;10.40;3.75;;;21.10;99.90;;;;;;4941200;29;20222;-71
2022/10/28 11:41:38;;;;;;;14.77;4.15;;;21.10;99.90;;;;;;4933053;29;20028;-73
2022/10/28 11:44:34;;;;;;;12.82;3.15;;;21.10;99.90;;;;;;4922082;29;20036;-71
2022/10/28 11:47:30;;;;;;;8.65;3.08;;;21.10;99.90;;;;;;4911047;29;20032;-71
2022/10/28 11:50:02;;;;;;;9.50;3.83;;;21.00;99.90;;;;;;4930881;29;20028;-70
2022/10/28 11:52:27;;;;;;;9.00;3.47;;;20.90;99.90;;;;;;4931953;29;20135;-68
2022/10/28 11:55:17;;;;;;;9.25;3.83;;;20.80;99.90;;;;;;4932363;29;20036;-70
2022/10/28 11:57:56;;;;;;;7.38;3.25;;;20.80;99.90;;;;;;4930707;29;20043;-72
2022/10/28 12:00:51;;;;;;;9.10;3.05;;;20.60;99.90;;;;;;4938044;29;20044;-70
2022/10/28 12:03:19;;;;;;;10.10;3.58;;;20.60;99.90;;;;;;4921236;29;20032;-70
2022/10/28 12:05:48;;;;;;;;;;;20.60;99.90;;;;;;4931729;29;20047;-71
2022/10/28 12:08:23;;;;;;;7.55;3.10;;;20.60;99.90;;;;;;4938723;29;19910;-69
2022/10/28 12:10:51;;;;;;;10.23;3.20;;;20.80;99.90;;;;;;4941884;29;20064;-71
2022/10/28 12:13:37;;;;;;;13.25;3.38;;;21.00;99.90;;;;;;4940422;29;20082;-69
2022/10/28 12:16:20;;;;;;;10.35;3.20;;;21.20;99.90;;;;;;4930486;29;20535;-71
2022/10/28 12:19:16;;;;;;;8.43;3.40;;;21.60;99.90;;;;;;4939124;29;20115;-71
2022/10/28 12:21:50;;;;;;;8.80;3.10;;;21.90;99.90;;;;;;4934612;29;20030;-71
2022/10/28 12:24:20;;;;;;;7.70;3.00;;;22.30;99.20;;;;;;4934756;29;20080;-70
2022/10/28 12:26:55;;;;;;;6.53;2.95;;;22.60;99.10;;;;;;4939724;29;20023;-70
2022/10/28 12:29:32;;;;;;;10.27;2.92;;;23.60;98.40;;;;;;4938379;29;20032;-70
2022/10/28 12:32:07;;;;;;;9.55;3.53;;;24.90;96.50;;;;;;4938424;29;20040;-73
2022/10/28 12:34:56;;;;;;;10.02;3.55;;;25.50;94.80;;;;;;4933193;29;20083;-72
2022/10/28 12:37:26;;;;;;;7.20;3.60;;;26.30;93.70;;;;;;4938925;29;20123;-71
2022/10/28 12:40:20;;;;;;;15.30;3.70;;;27.30;92.30;;;;;;4945878;29;20098;-72
2022/10/28 12:42:58;;;;;;;14.70;4.18;;;28.00;90.90;;;;;;4944958;29;20034;-70
2022/10/28 12:45:24;;;;;;;9.05;3.75;;;28.10;90.20;;;;;;4944887;29;20067;-70
2022/10/28 12:48:13;;;;;;;9.32;3.67;;;28.60;89.10;;;;;;4945482;29;20028;-72
2022/10/28 12:50:47;;;;;;;9.25;3.85;;;29.30;88.00;;;;;;4945810;29;20055;-70
2022/10/28 12:53:25;;;;;;;6.97;2.78;;;30.60;84.80;;;;;;4927445;29;20036;-70
2022/10/28 12:55:59;;;;;;;12.63;2.92;;;31.40;82.00;;;;;;4926456;29;20316;-72
2022/10/28 12:58:37;;;;;;;10.95;3.60;;;31.80;78.80;;;;;;4923079;29;20040;-73
2022/10/28 13:01:23;;;;;;;9.32;3.38;;;31.20;78.00;;;;;;4945448;29;20054;-72
2022/10/28 13:03:49;;;;;;;11.75;3.38;;;31.10;76.90;;;;;;4926454;29;20333;-72
2022/10/28 13:07:00;;;;;;;11.50;3.00;;;30.50;77.50;;;;;;4900535;29;20036;-71
2022/10/28 13:09:46;;;;;;;10.27;3.30;;;30.20;77.60;;;;;;4910411;29;20295;-71
2022/10/28 13:12:23;;;;;;;7.18;2.92;;;30.30;77.90;;;;;;4925511;29;20087;-73
2022/10/28 13:15:11;;;;;;;8.57;3.25;;;30.40;77.60;;;;;;4926172;29;20306;-71
2022/10/28 13:18:01;;;;;;;9.30;2.83;;;30.60;76.40;;;;;;4909184;29;20048;-72
2022/10/28 13:20:45;;;;;;;9.07;3.00;;;30.90;75.50;;;;;;4925208;29;20358;-71
2022/10/28 13:23:39;;;;;;;8.18;2.70;;;31.60;75.00;;;;;;4925181;29;20028;-72
2022/10/28 13:26:34;;;;;;;16.52;3.17;;;31.60;74.00;;;;;;4924069;29;20039;-71
2022/10/28 13:29:04;;;;;;;8.13;2.70;;;31.50;74.80;;;;;;4925372;29;20055;-71
2022/10/28 13:31:38;;;;;;;8.35;3.03;;;30.90;75.50;;;;;;4924255;29;20051;-73
2022/10/28 13:34:04;;;;;;;8.35;3.08;;;30.70;76.10;;;;;;4925330;29;20028;-71
2022/10/28 13:36:37;;;;;;;8.18;3.30;;;30.50;76.60;;;;;;4925030;29;20044;-71
2022/10/28 13:39:24;;;;;;;8.48;3.28;;;29.80;78.00;;;;;;4925426;29;20032;-72
2022/10/28 13:42:18;;;;;;;9.85;2.75;;;29.40;79.80;;;;;;4925624;29;20040;-72
2022/10/28 13:44:54;;;;;;;10.13;3.15;;;29.20;79.60;;;;;;4925524;29;20059;-70
2022/10/28 13:47:46;;;;;;;7.75;3.08;;;29.00;80.90;;;;;;4924931;29;20048;-71
2022/10/28 13:50:27;;;;;;;10.27;3.60;;;29.00;80.30;;;;;;4923074;29;20044;-71
2022/10/28 13:53:27;;;;;;;7.85;2.65;;;28.50;80.60;;;;;;4926101;29;20024;-70
2022/10/28 13:55:56;;;;;;;9.30;3.40;;;28.00;82.60;;;;;;4926408;29;20067;-70
2022/10/28 13:58:25;;;;;;;10.15;3.40;;;27.60;83.20;;;;;;4925489;29;20210;-70
2022/10/28 14:00:51;;;;;;;;;;;27.30;84.00;;;;;;4926867;29;20052;-72
2022/10/28 14:03:19;;;;;;;10.20;3.33;;;27.00;85.90;;;;;;4941013;29;19915;-70
2022/10/28 14:05:45;;;;;;;7.78;3.10;;;26.70;86.10;;;;;;4944919;29;20036;-71
2022/10/28 14:08:20;;;;;;;8.30;3.08;;;26.50;86.50;;;;;;4944612;29;20325;-70
2022/10/28 14:11:10;;;;;;;10.00;4.03;;;26.40;87.80;;;;;;4928131;29;20024;-72
2022/10/28 14:13:48;;;;;;;9.40;2.95;;;26.30;89.00;;;;;;4928422;29;20128;-70
2022/10/28 14:16:28;;;;;;;10.13;3.22;;;26.40;89.50;;;;;;4944844;29;20058;-70
2022/10/28 14:19:13;;;;;;;8.65;3.42;;;26.30;89.90;;;;;;4945419;29;20341;-70
2022/10/28 14:21:45;;;;;;;11.35;3.20;;;26.30;89.70;;;;;;4945400;29;20044;-71
2022/10/28 14:24:28;;;;;;;12.60;3.65;;;26.10;89.30;;;;;;4944586;29;20078;-70
2022/10/28 14:27:18;;;;;;;7.35;2.70;;;25.90;90.40;;;;;;4945164;29;20035;-71
2022/10/28 14:29:44;;;;;;;8.50;3.47;;;25.70;90.90;;;;;;4945061;29;20050;-72
2022/10/28 14:32:31;;;;;;;10.50;3.53;;;25.60;91.00;;;;;;4944862;29;20023;-77
2022/10/28 14:35:09;;;;;;;9.13;3.67;;;25.40;91.10;;;;;;4945510;29;20075;-71
2022/10/28 14:38:04;;;;;;;6.05;2.95;;;25.20;91.50;;;;;;4945036;29;20035;-72
2022/10/28 14:40:48;;;;;;;12.40;3.88;;;25.10;92.40;;;;;;4876153;29;20037;-72
2022/10/28 14:43:41;;;;;;;9.27;3.78;;;24.90;92.20;;;;;;4944143;29;20027;-71
2022/10/28 14:46:23;;;;;;;10.57;3.03;;;24.90;92.10;;;;;;4944524;29;20070;-73
2022/10/28 14:48:53;;;;;;;11.68;3.55;;;24.90;92.20;;;;;;4944401;29;20035;-72
2022/10/28 14:51:41;;;;;;;9.63;3.50;;;24.80;92.20;;;;;;4926747;29;20046;-72
2022/10/28 14:54:23;;;;;;;10.98;3.58;;;24.70;92.70;;;;;;4944813;29;20098;-71
2022/10/28 14:56:54;;;;;;;9.95;3.05;;;24.50;92.40;;;;;;4942845;29;20027;-71
2022/10/28 14:59:23;;;;;;;14.60;3.35;;;24.50;92.60;;;;;;4924691;29;20254;-71
2022/10/28 15:01:58;;;;;;;13.13;3.97;;;24.30;92.40;;;;;;4925122;29;20072;-70
2022/10/28 15:04:23;;;;;;;9.40;3.75;;;24.20;93.70;;;;;;4924459;29;20032;-71
2022/10/28 15:06:51;;;;;;;9.35;3.70;;;24.10;93.90;;;;;;4925721;29;20036;-71
2022/10/28 15:09:22;;;;;;;10.90;3.47;;;23.90;93.60;;;;;;4925295;29;20036;-71
2022/10/28 15:12:06;;;;;;;15.43;4.35;;;23.80;94.60;;;;;;4925612;29;20258;-70
2022/10/28 15:14:45;;;;;;;14.25;4.10;;;23.70;94.30;;;;;;4924719;29;20036;-76
2022/10/28 15:17:17;;;;;;;12.07;4.78;;;23.50;94.70;;;;;;4924901;29;20040;-72
2022/10/28 15:19:45;;;;;;;12.32;4.43;;;23.40;95.40;;;;;;4925389;29;20038;-69
2022/10/28 15:22:15;;;;;;;13.23;4.38;;;23.40;95.30;;;;;;4924936;29;20024;-70
2022/10/28 15:24:41;;;;;;;14.25;4.68;;;23.30;95.30;;;;;;4908239;29;20344;-72
2022/10/28 15:27:11;;;;;;;13.25;4.22;;;23.20;96.40;;;;;;4925151;29;20095;-71
2022/10/28 15:29:37;;;;;;;10.10;4.03;;;23.10;95.90;;;;;;4925474;29;20028;-70
2022/10/28 15:32:15;;;;;;;12.90;4.57;;;23.10;96.10;;;;;;4925406;29;20028;-70
2022/10/28 15:34:42;;;;;;;10.15;4.20;;;23.00;95.90;;;;;;4925255;29;20040;-71
2022/10/28 15:37:31;;;;;;;13.07;4.30;;;22.90;95.90;;;;;;4925353;29;20234;-70
2022/10/28 15:40:20;;;;;;;11.85;4.78;;;22.80;95.90;;;;;;4917662;29;20371;-71
2022/10/28 15:42:55;;;;;;;10.00;3.97;;;22.70;96.10;;;;;;4925292;29;20032;-72
2022/10/28 15:45:27;;;;;;;10.90;4.38;;;22.70;96.20;;;;;;4924742;29;20040;-71
2022/10/28 15:47:54;;;;;;;10.55;4.80;;;22.60;97.00;;;;;;4925330;29;20039;-72
2022/10/28 15:50:28;;;;;;;11.23;4.38;;;22.50;96.80;;;;;;4924662;29;20020;-72
2022/10/28 15:53:31;;;;;;;10.88;4.18;;;22.40;97.20;;;;;;4925100;29;20302;-71
2022/10/28 15:56:26;;;;;;;13.27;4.68;;;22.30;97.40;;;;;;4928849;29;20040;-71
2022/10/28 15:58:57;;;;;;;11.75;6.15;;;22.00;97.90;;;;;;4933669;29;20054;-72
2022/10/28 16:01:34;;;;;;;11.93;4.93;;;21.80;98.30;;;;;;4946656;29;20066;-71
2022/10/28 16:04:00;;;;;;;14.55;4.35;;;21.70;98.10;;;;;;4947434;29;20035;-69
2022/10/28 16:06:38;;;;;;;10.85;4.10;;;21.60;98.20;;;;;;4947174;29;20062;-71
2022/10/28 16:09:18;;;;;;;;;;;21.50;98.40;;;;;;4947156;29;20050;-72
2022/10/28 16:11:55;;;;;;;13.15;4.22;;;21.40;98.50;;;;;;4911895;29;19907;-73
2022/10/28 16:14:36;;;;;;;11.07;4.25;;;21.30;99.30;;;;;;4928488;29;20036;-70
2022/10/28 16:17:07;;;;;;;10.70;4.60;;;21.20;99.10;;;;;;4928658;29;20047;-71
2022/10/28 16:19:45;;;;;;;14.98;4.40;;;21.10;99.40;;;;;;4927964;29;20028;-72
2022/10/28 16:22:15;;;;;;;14.77;5.03;;;21.00;99.90;;;;;;4928538;29;20047;-71
2022/10/28 16:24:41;;;;;;;16.88;5.22;;;20.90;99.90;;;;;;4941179;29;20043;-73
2022/10/28 16:27:14;;;;;;;14.05;6.03;;;20.80;99.90;;;;;;4945786;29;20344;-70
2022/10/28 16:29:40;;;;;;;14.55;6.47;;;20.80;99.90;;;;;;4946088;29;20071;-72
2022/10/28 16:32:09;;;;;;;16.67;6.63;;;20.70;99.90;;;;;;4945592;29;20301;-71
2022/10/28 16:34:35;;;;;;;18.98;6.85;;;20.60;99.90;;;;;;4945122;29;20047;-71
2022/10/28 16:37:01;;;;;;;13.35;6.40;;;20.50;99.90;;;;;;4946144;29;20329;-70
2022/10/28 16:39:26;;;;;;;24.70;6.82;;;20.40;99.90;;;;;;4945217;29;20019;-71
2022/10/28 16:41:54;;;;;;;12.88;6.40;;;20.30;99.90;;;;;;4945739;29;20124;-70
2022/10/28 16:44:21;;;;;;;18.83;7.47;;;20.10;99.90;;;;;;4945624;29;20317;-72
2022/10/28 16:46:47;;;;;;;15.07;5.63;;;20.10;99.90;;;;;;4945966;29;20032;-71
2022/10/28 16:49:12;;;;;;;17.05;5.28;;;20.10;99.90;;;;;;4945826;29;20325;-72
2022/10/28 16:51:38;;;;;;;13.15;5.93;;;20.00;99.90;;;;;;4945377;29;20043;-71
2022/10/28 16:54:04;;;;;;;14.88;5.22;;;20.00;99.90;;;;;;4945568;29;20032;-72
2022/10/28 16:56:30;;;;;;;11.95;4.82;;;19.90;99.90;;;;;;4941954;29;20031;-73
2022/10/28 16:58:55;;;;;;;16.25;5.72;;;19.90;99.90;;;;;;4944085;29;20032;-72
2022/10/28 17:01:21;;;;;;;12.70;5.22;;;19.80;99.90;;;;;;4945099;29;20265;-73
2022/10/28 17:03:47;;;;;;;13.23;4.68;;;19.80;99.90;;;;;;4945378;29;20110;-75
2022/10/28 17:06:12;;;;;;;12.88;5.45;;;19.70;99.90;;;;;;4943804;29;20059;-70
2022/10/28 17:08:38;;;;;;;12.50;5.07;;;19.70;99.90;;;;;;4909896;29;20220;-70
2022/10/28 17:11:04;;;;;;;12.60;6.03;;;19.60;99.90;;;;;;4943293;29;20039;-70
2022/10/28 17:13:30;;;;;;;12.55;5.43;;;19.60;99.90;;;;;;4946048;29;20031;-71
2022/10/28 17:15:55;;;;;;;13.07;6.10;;;19.50;99.90;;;;;;4946507;29;20055;-71
2022/10/28 17:18:22;;;;;;;16.60;7.07;;;19.40;99.90;;;;;;4945902;29;20035;-72
2022/10/28 17:21:01;;;;;;;10.90;5.85;;;19.30;99.90;;;;;;4946094;29;20038;-70
2022/10/28 17:23:28;;;;;;;18.83;7.03;;;19.20;99.90;;;;;;4945945;29;20106;-72
2022/10/28 17:25:57;;;;;;;12.90;6.05;;;19.00;99.90;;;;;;4946129;29;20054;-71
2022/10/28 17:28:23;;;;;;;14.32;6.57;;;19.00;99.90;;;;;;4945720;29;20261;-73
2022/10/28 17:30:50;;;;;;;15.15;6.88;;;18.90;99.90;;;;;;4945973;29;20047;-72
2022/10/28 17:33:16;;;;;;;16.58;8.13;;;18.80;99.90;;;;;;4945945;29;20031;-71
2022/10/28 17:35:42;;;;;;;16.90;7.03;;;18.80;99.90;;;;;;4946100;29;20042;-72
2022/10/28 17:38:07;;;;;;;17.85;8.00;;;18.70;99.90;;;;;;4946059;29;20099;-71
2022/10/28 17:40:33;;;;;;;16.52;8.40;;;18.60;99.90;;;;;;4945611;29;20329;-75
2022/10/28 17:42:59;;;;;;;19.20;7.97;;;18.50;99.90;;;;;;4946150;29;20075;-73
2022/10/28 17:45:25;;;;;;;35.28;14.43;;;18.30;99.90;;;;;;4945483;29;20348;-73
2022/10/28 17:47:50;;;;;;;20.05;8.88;;;18.30;99.90;;;;;;4945853;29;20323;-70
2022/10/28 17:50:16;;;;;;;32.75;12.88;;;18.30;99.90;;;;;;4945419;29;20067;-70
2022/10/28 17:52:42;;;;;;;48.28;16.98;;;18.20;99.90;;;;;;4944985;29;20043;-71
2022/10/28 17:55:08;;;;;;;29.38;12.77;;;18.20;99.90;;;;;;4945576;29;20058;-71
2022/10/28 17:57:34;;;;;;;24.27;9.88;;;18.10;99.90;;;;;;4941056;29;20091;-70
2022/10/28 18:00:00;;;;;;;19.67;7.68;;;18.10;99.90;;;;;;4945886;29;20102;-70
2022/10/28 18:02:25;;;;;;;19.38;7.53;;;18.10;99.90;;;;;;4944904;29;20141;-72
2022/10/28 18:04:51;;;;;;;17.77;7.88;;;18.00;99.90;;;;;;4945591;29;20035;-71
2022/10/28 18:07:17;;;;;;;15.52;6.70;;;17.90;99.90;;;;;;4945200;29;20364;-71
2022/10/28 18:09:42;;;;;;;20.45;9.10;;;17.80;99.90;;;;;;4941412;29;20114;-68